Time;durP1;ratioP1;P1;durP2;ratioP2;P2;SDS_P1;SDS_P2;PMS_P1;PMS_P2;Temp;Humidity;BMP_temperature;BMP_pressure;BME280_temperature;BME280_humidity;BME280_pressure;Samples;Min_cycle;Max_cycle;Signal;HPM_P1;HPM_P2
2022/09/08 06:24:56;;;;;;;;;0.67;0.67;;;;;;;;6388209;22;28830;-85
2022/09/08 06:27:27;;;;;;;;;3.00;1.00;;;;;;;;6385326;22;28484;-85
2022/09/08 06:29:52;;;;;;;;;1.00;1.00;;;;;;;;6360991;22;27785;-85
2022/09/08 06:32:34;;;;;;;;;2.00;2.00;;;;;;;;6390038;22;28315;-86
2022/09/08 06:35:02;;;;;;;;;1.00;1.00;;;;;;;;6389191;22;28236;-84
2022/09/08 06:37:30;;;;;;;;;2.00;2.00;;;;;;;;6396124;22;28659;-86
2022/09/08 06:40:19;;;;;;;;;3.00;3.00;;;;;;;;6368321;22;28690;-86
2022/09/08 06:42:44;;;;;;;;;1.67;1.00;;;;;;;;6265521;22;30249;-85
2022/09/08 06:45:14;;;;;;;;;3.75;3.75;;;;;;;;6240304;22;28516;-85
2022/09/08 06:47:42;;;;;;;;;3.00;1.00;;;;;;;;6257399;22;28522;-87
2022/09/08 06:50:11;;;;;;;;;3.00;2.33;;;;;;;;6259218;22;28360;-86
2022/09/08 06:52:42;;;;;;;;;1.00;1.00;;;;;;;;6258422;22;28332;-87
2022/09/08 06:55:14;;;;;;;;;1.00;1.00;;;;;;;;6232585;22;28645;-86
2022/09/08 06:57:48;;;;;;;;;3.00;1.00;;;;;;;;6256719;22;28428;-87
2022/09/08 07:00:22;;;;;;;;;5.00;2.00;;;;;;;;6258561;22;28334;-87
2022/09/08 07:02:53;;;;;;;;;3.00;2.00;;;;;;;;6228931;22;30707;-86
2022/09/08 07:05:18;;;;;;;;;3.33;1.67;;;;;;;;6257541;22;28520;-87
2022/09/08 07:07:53;;;;;;;;;3.75;3.75;;;;;;;;6230380;22;28346;-87
2022/09/08 07:10:23;;;;;;;;;2.33;2.33;;;;;;;;6230696;22;28436;-86
2022/09/08 07:12:51;;;;;;;;;2.67;2.67;;;;;;;;6230929;22;30242;-86
2022/09/08 07:15:32;;;;;;;;;1.00;1.00;;;;;;;;6257424;22;28449;-86
2022/09/08 07:18:06;;;;;;;;;1.33;1.33;;;;;;;;6256649;22;28320;-86
2022/09/08 07:20:31;;;;;;;;;3.00;2.00;;;;;;;;6332945;22;28546;-86
2022/09/08 07:23:00;;;;;;;;;3.33;3.00;;;;;;;;6357106;22;30164;-86
2022/09/08 07:25:32;;;;;;;;;5.00;2.67;;;;;;;;6355247;22;29282;-86
2022/09/08 07:27:58;;;;;;;;;2.00;2.00;;;;;;;;6384079;22;28363;-86
2022/09/08 07:30:23;;;;;;;;;4.00;2.33;;;;;;;;6383816;22;27782;-86
2022/09/08 07:33:01;;;;;;;;;2.33;2.00;;;;;;;;6356412;22;29997;-86
2022/09/08 07:35:42;;;;;;;;;2.00;2.00;;;;;;;;6357983;22;28958;-86
2022/09/08 07:38:12;;;;;;;;;5.00;3.00;;;;;;;;6383359;22;28385;-86
2022/09/08 07:40:40;;;;;;;;;2.00;2.00;;;;;;;;6384086;22;28346;-87
2022/09/08 07:43:13;;;;;;;;;3.67;2.67;;;;;;;;6356726;22;29420;-87
2022/09/08 07:45:46;;;;;;;;;3.00;3.00;;;;;;;;6357178;22;28534;-87
2022/09/08 07:48:20;;;;;;;;;1.67;1.67;;;;;;;;6356956;22;28376;-87
2022/09/08 07:50:54;;;;;;;;;2.00;2.00;;;;;;;;6385939;22;28381;-87
2022/09/08 07:53:37;;;;;;;;;3.00;3.00;;;;;;;;6385987;22;28700;-87
2022/09/08 07:56:07;;;;;;;;;2.00;2.00;;;;;;;;6383313;22;28384;-87
2022/09/08 07:58:39;;;;;;;;;3.67;2.00;;;;;;;;6384718;22;28310;-88
2022/09/08 08:01:19;;;;;;;;;4.00;2.00;;;;;;;;6358103;22;28684;-87
2022/09/08 08:03:53;;;;;;;;;2.67;2.67;;;;;;;;6361770;22;29918;-87
2022/09/08 08:06:18;;;;;;;;;2.00;2.00;;;;;;;;6389973;22;28322;-86
2022/09/08 08:08:44;;;;;;;;;6.25;3.00;;;;;;;;6392844;22;28369;-87
2022/09/08 08:11:16;;;;;;;;;4.00;2.00;;;;;;;;6357104;22;28376;-86
2022/09/08 08:13:52;;;;;;;;;3.00;2.00;;;;;;;;6360355;22;29980;-87
2022/09/08 08:16:28;;;;;;;;;6.00;4.00;;;;;;;;6365155;22;28836;-87
2022/09/08 08:19:02;;;;;;;;;4.67;3.00;;;;;;;;6365659;22;28409;-88
2022/09/08 08:21:38;;;;;;;;;4.00;2.00;;;;;;;;6394289;22;28323;-88
2022/09/08 08:24:24;;;;;;;;;5.00;5.00;;;;;;;;6361175;22;31700;-88
2022/09/08 08:27:08;;;;;;;;;4.00;3.00;;;;;;;;6367273;22;28405;-87
2022/09/08 08:29:39;;;;;;;;;4.00;2.33;;;;;;;;6355658;22;28450;-87
2022/09/08 08:32:13;;;;;;;;;3.00;1.00;;;;;;;;6384997;22;28370;-88
2022/09/08 08:34:51;;;;;;;;;3.00;1.00;;;;;;;;6356448;22;29830;-88
2022/09/08 08:37:20;;;;;;;;;3.67;2.00;;;;;;;;6385625;22;28467;-88
2022/09/08 08:39:48;;;;;;;;;2.00;1.00;;;;;;;;6386450;22;28555;-88
2022/09/08 08:42:33;;;;;;;;;5.00;2.00;;;;;;;;6384468;22;28409;-88
2022/09/08 08:45:30;;;;;;;;;2.33;2.00;;;;;;;;6357192;22;31563;-87
2022/09/08 08:48:05;;;;;;;;;3.67;3.67;;;;;;;;6256591;22;28571;-88
2022/09/08 08:50:54;;;;;;;;;1.00;1.00;;;;;;;;6230651;22;28791;-89
2022/09/08 08:53:35;;;;;;;;;1.00;1.00;;;;;;;;6251554;22;28419;-89
2022/09/08 08:56:12;;;;;;;;;2.33;2.33;;;;;;;;6255088;22;30326;-89
2022/09/08 08:58:52;;;;;;;;;1.67;1.67;;;;;;;;6230026;22;29429;-90
2022/09/08 09:01:17;;;;;;;;;3.67;2.00;;;;;;;;6230458;22;28466;-89
2022/09/08 09:04:06;;;;;;;;;1.00;1.00;;;;;;;;6250962;22;28554;-89
2022/09/08 09:06:56;;;;;;;;;1.00;1.00;;;;;;;;6230340;22;29972;-89
2022/09/08 09:09:22;;;;;;;;;3.00;2.00;;;;;;;;6256374;22;28356;-90
2022/09/08 09:11:59;;;;;;;;;3.00;2.00;;;;;;;;6228869;22;28309;-90
2022/09/08 09:14:34;;;;;;;;;1.00;1.00;;;;;;;;6231286;22;28368;-89
2022/09/08 09:17:30;;;;;;;;;2.00;2.00;;;;;;;;6255718;22;28573;-89
2022/09/08 09:20:16;;;;;;;;;3.00;2.00;;;;;;;;6230420;22;30006;-90
2022/09/08 09:22:53;;;;;;;;;1.67;1.67;;;;;;;;6274547;22;28466;-90
2022/09/08 09:25:28;;;;;;;;;1.67;1.67;;;;;;;;6356057;22;28686;-89
2022/09/08 09:28:22;;;;;;;;;3.00;2.00;;;;;;;;6356554;22;31383;-89
2022/09/08 09:30:53;;;;;;;;;3.33;2.33;;;;;;;;6384602;22;28594;-88
2022/09/08 09:33:37;;;;;;;;;5.00;2.00;;;;;;;;6385525;22;28480;-88
2022/09/08 09:36:11;;;;;;;;;2.00;2.00;;;;;;;;6357123;22;28452;-89
2022/09/08 09:38:46;;;;;;;;;4.67;2.67;;;;;;;;6387844;22;28496;-89
2022/09/08 09:41:20;;;;;;;;;2.00;2.00;;;;;;;;6392822;22;28455;-89
2022/09/08 09:44:05;;;;;;;;;3.00;1.33;;;;;;;;6365669;22;28335;-89
2022/09/08 09:46:37;;;;;;;;;2.00;2.00;;;;;;;;6392167;22;28540;-88
2022/09/08 09:49:08;;;;;;;;;2.67;2.67;;;;;;;;6362086;22;29194;-89
2022/09/08 09:51:36;;;;;;;;;3.00;3.00;;;;;;;;6394552;22;28419;-89
2022/09/08 09:54:01;;;;;;;;;2.00;2.00;;;;;;;;6367869;22;28318;-89
2022/09/08 09:56:45;;;;;;;;;2.00;1.67;;;;;;;;6394594;22;28354;-89
2022/09/08 09:59:32;;;;;;;;;2.00;2.00;;;;;;;;6395224;22;29512;-89
2022/09/08 10:02:16;;;;;;;;;2.67;2.00;;;;;;;;6365116;22;28598;-89
2022/09/08 10:04:41;;;;;;;;;3.00;1.00;;;;;;;;6386499;22;28389;-89
2022/09/08 10:07:21;;;;;;;;;2.00;2.00;;;;;;;;6387585;22;28351;-94
2022/09/08 10:10:06;;;;;;;;;3.00;3.00;;;;;;;;6368892;22;29407;-96
2022/09/08 10:12:31;;;;;;;;;1.00;1.00;;;;;;;;6382804;22;27797;-96
2022/09/08 10:20:33;;;;;;;;;2.00;0.00;;;;;;;;6342804;22;1312407;-93
2022/09/08 10:22:59;;;;;;;;;3.00;2.00;;;;;;;;6356518;22;28812;-93
2022/09/08 10:25:24;;;;;;;;;1.25;1.25;;;;;;;;6405961;22;27679;-96
2022/09/08 10:27:49;;;;;;;;;1.67;1.67;;;;;;;;6374135;22;28491;-96
2022/09/08 10:30:19;;;;;;;;;1.67;1.67;;;;;;;;6366123;22;29669;-96
2022/09/08 10:32:45;;;;;;;;;1.67;1.00;;;;;;;;6367166;22;28624;-94
2022/09/08 10:35:29;;;;;;;;;2.00;2.00;;;;;;;;6372456;22;28461;-96
2022/09/08 10:38:06;;;;;;;;;1.33;1.33;;;;;;;;6370964;22;28413;-96
2022/09/08 10:40:48;;;;;;;;;2.00;2.00;;;;;;;;6341711;22;29457;-95
2022/09/08 10:43:32;;;;;;;;;1.00;1.00;;;;;;;;6332298;22;28533;-94
2022/09/08 10:46:04;;;;;;;;;1.00;1.00;;;;;;;;6344825;22;27759;-96
2022/09/08 10:48:32;;;;;;;;;1.00;1.00;;;;;;;;6322223;22;28422;-92
2022/09/08 10:51:10;;;;;;;;;4.00;1.67;;;;;;;;6320011;22;29982;-92
2022/09/08 10:53:58;;;;;;;;;2.00;2.00;;;;;;;;6324104;22;28791;-95
2022/09/08 10:56:26;;;;;;;;;2.00;2.00;;;;;;;;6321611;22;28708;-95
2022/09/08 10:59:00;;;;;;;;;1.00;1.00;;;;;;;;6326010;22;28216;-94
2022/09/08 11:14:49;;;;;;;;;0.67;0.33;;;;;;;;6371846;22;28394;-94
2022/09/08 11:17:24;;;;;;;;;2.33;1.00;;;;;;;;6271281;22;27801;-96
2022/09/08 11:19:55;;;;;;;;;3.00;2.00;;;;;;;;6271387;22;28306;-89
2022/09/08 11:22:38;;;;;;;;;2.67;1.67;;;;;;;;6241595;22;28373;-94
2022/09/08 11:25:14;;;;;;;;;3.00;1.00;;;;;;;;6266995;22;28392;-92
2022/09/08 11:27:58;;;;;;;;;4.00;1.67;;;;;;;;6265689;22;28450;-93
2022/09/08 11:30:30;;;;;;;;;1.00;1.00;;;;;;;;6240761;22;28805;-93
2022/09/08 11:33:13;;;;;;;;;1.00;1.00;;;;;;;;6242358;22;29771;-90
2022/09/08 11:35:57;;;;;;;;;0.67;0.67;;;;;;;;6241131;22;29445;-93
2022/09/08 11:38:41;;;;;;;;;0.67;0.67;;;;;;;;6236436;22;28503;-89
2022/09/08 11:41:06;;;;;;;;;2.00;1.00;;;;;;;;6230483;22;27887;-90
2022/09/08 11:43:41;;;;;;;;;1.67;1.33;;;;;;;;6230701;22;29653;-87
2022/09/08 11:46:21;;;;;;;;;2.00;1.00;;;;;;;;6230108;22;28821;-87
2022/09/08 11:48:59;;;;;;;;;0.67;0.67;;;;;;;;6230799;22;28350;-89
2022/09/08 11:51:44;;;;;;;;;0.67;0.67;;;;;;;;6328120;22;28536;-88
2022/09/08 11:54:37;;;;;;;;;0.00;0.00;;;;;;;;6357579;22;29244;-88
2022/09/08 11:57:18;;;;;;;;;0.00;0.00;;;;;;;;6355949;22;28569;-88
2022/09/08 12:00:19;;;;;;;;;1.00;0.33;;;;;;;;6357062;22;28758;-88
2022/09/08 12:03:06;;;;;;;;;0.00;0.00;;;;;;;;6258592;22;28686;-96
2022/09/08 12:05:50;;;;;;;;;1.33;0.33;;;;;;;;6235898;22;30098;-96
2022/09/08 12:08:24;;;;;;;;;0.67;0.00;;;;;;;;6232254;22;28884;-95
2022/09/08 12:10:58;;;;;;;;;0.00;0.00;;;;;;;;6232192;22;28420;-94
2022/09/08 12:13:48;;;;;;;;;0.00;0.00;;;;;;;;6232643;22;28543;-94
2022/09/08 12:16:43;;;;;;;;;1.00;0.00;;;;;;;;6233038;22;29717;-96
2022/09/08 12:19:17;;;;;;;;;0.67;0.00;;;;;;;;6236963;22;30064;-94
2022/09/08 12:21:42;;;;;;;;;2.00;0.00;;;;;;;;6236014;22;27786;-96
2022/09/08 12:24:33;;;;;;;;;0.00;0.00;;;;;;;;6236372;22;28362;-96
2022/09/08 12:27:06;;;;;;;;;0.00;0.00;;;;;;;;6170524;23;29924;-96
2022/09/08 12:29:46;;;;;;;;;1.25;0.50;;;;;;;;6147094;23;29026;-96
2022/09/08 12:32:31;;;;;;;;;0.00;0.00;;;;;;;;6150447;23;28450;-96
2022/09/08 12:35:33;;;;;;;;;0.00;0.00;;;;;;;;6181778;23;27849;-96
2022/09/08 12:38:15;;;;;;;;;0.00;0.00;;;;;;;;6171300;23;29904;-96
2022/09/08 12:41:02;;;;;;;;;0.00;0.00;;;;;;;;6148925;23;28749;-96
2022/09/08 12:43:34;;;;;;;;;1.00;0.00;;;;;;;;6152591;23;28516;-94
2022/09/08 12:46:02;;;;;;;;;0.67;0.00;;;;;;;;6142024;23;27856;-84
2022/09/08 12:48:32;;;;;;;;;1.00;1.00;;;;;;;;6156077;23;28453;-84
2022/09/08 12:50:58;;;;;;;;;0.33;0.00;;;;;;;;6162857;23;28554;-85
2022/09/08 12:53:42;;;;;;;;;0.67;0.00;;;;;;;;6162599;23;28500;-85
2022/09/08 12:56:28;;;;;;;;;2.00;0.00;;;;;;;;6165541;23;28508;-85
2022/09/08 12:58:58;;;;;;;;;0.00;0.00;;;;;;;;6166269;23;29242;-84
2022/09/08 13:01:35;;;;;;;;;1.00;1.00;;;;;;;;6140135;23;28453;-84
2022/09/08 13:04:10;;;;;;;;;0.00;0.00;;;;;;;;6218864;22;28508;-85
2022/09/08 13:06:44;;;;;;;;;0.00;0.00;;;;;;;;6256000;22;28500;-84
2022/09/08 13:09:26;;;;;;;;;0.00;0.00;;;;;;;;6236820;22;30704;-84
2022/09/08 13:12:04;;;;;;;;;0.00;0.00;;;;;;;;6293273;22;28444;-84
2022/09/08 13:14:42;;;;;;;;;1.00;0.00;;;;;;;;6393256;22;28452;-85
2022/09/08 13:17:10;;;;;;;;;0.00;0.00;;;;;;;;6392489;22;28575;-86
2022/09/08 13:19:51;;;;;;;;;0.00;0.00;;;;;;;;6385532;22;28684;-85
2022/09/08 13:22:28;;;;;;;;;0.00;0.00;;;;;;;;6355155;22;30275;-85
2022/09/08 13:25:29;;;;;;;;;0.00;0.00;;;;;;;;6386285;22;28438;-85
2022/09/08 13:27:54;;;;;;;;;1.00;0.00;;;;;;;;6255308;22;28503;-85
2022/09/08 13:30:20;;;;;;;;;0.50;0.00;;;;;;;;6257097;22;28443;-84
2022/09/08 13:32:46;;;;;;;;;0.00;0.00;;;;;;;;6255856;22;28518;-85
2022/09/08 13:35:29;;;;;;;;;0.00;0.00;;;;;;;;6256934;22;28513;-85
2022/09/08 13:37:54;;;;;;;;;0.00;0.00;;;;;;;;6230891;22;28602;-86
2022/09/08 13:40:19;;;;;;;;;1.25;0.00;;;;;;;;6256679;22;28380;-86
2022/09/08 13:42:50;;;;;;;;;0.00;0.00;;;;;;;;6255521;22;28419;-86
2022/09/08 13:45:20;;;;;;;;;0.00;0.00;;;;;;;;6256808;22;28609;-86
2022/09/08 13:48:04;;;;;;;;;1.67;0.00;;;;;;;;6257378;22;28517;-86
2022/09/08 13:50:41;;;;;;;;;0.00;0.00;;;;;;;;6230750;22;29746;-86
2022/09/08 13:53:15;;;;;;;;;0.00;0.00;;;;;;;;6257159;22;28518;-86
2022/09/08 13:55:43;;;;;;;;;0.00;0.00;;;;;;;;6256093;22;28486;-86
2022/09/08 13:58:14;;;;;;;;;1.00;0.00;;;;;;;;6230438;22;28361;-86
2022/09/08 14:00:57;;;;;;;;;1.33;0.33;;;;;;;;6230614;22;30120;-86
2022/09/08 14:03:24;;;;;;;;;0.00;0.00;;;;;;;;6385964;22;28376;-86
2022/09/08 14:05:49;;;;;;;;;0.67;0.33;;;;;;;;6386306;22;28403;-86
2022/09/08 14:08:14;;;;;;;;;0.67;0.00;;;;;;;;6357186;22;28497;-86
2022/09/08 14:10:39;;;;;;;;;0.00;0.00;;;;;;;;6385283;22;28452;-86
2022/09/08 14:13:12;;;;;;;;;2.00;0.25;;;;;;;;6385923;22;28307;-86
2022/09/08 14:15:48;;;;;;;;;0.00;0.00;;;;;;;;6385779;22;28296;-88
2022/09/08 14:18:42;;;;;;;;;0.00;0.00;;;;;;;;6353483;22;28448;-90
2022/09/08 14:21:11;;;;;;;;;2.00;0.00;;;;;;;;6335388;22;30711;-90
2022/09/08 14:24:15;;;;;;;;;0.00;0.00;;;;;;;;6363048;22;28418;-96
2022/09/08 14:27:01;;;;;;;;;;;;;;;;;;;;;
2022/09/08 14:29:32;;;;;;;;;0.00;0.00;;;;;;;;6255759;22;53964;-95
2022/09/08 14:32:05;;;;;;;;;0.00;0.00;;;;;;;;6264139;22;28405;-96
2022/09/08 14:34:33;;;;;;;;;0.00;0.00;;;;;;;;6259186;22;28422;-96
2022/09/08 14:37:10;;;;;;;;;1.67;0.00;;;;;;;;6239760;22;28522;-90
2022/09/08 14:39:54;;;;;;;;;1.00;0.00;;;;;;;;6267203;22;28418;-90
2022/09/08 14:42:49;;;;;;;;;0.00;0.00;;;;;;;;6265275;22;29303;-89
2022/09/08 14:46:01;;;;;;;;;0.00;0.00;;;;;;;;6246244;22;29553;-96
2022/09/08 14:48:48;;;;;;;;;0.00;0.00;;;;;;;;6375523;22;28492;-96
2022/09/08 14:51:25;;;;;;;;;1.00;1.00;;;;;;;;6402553;22;27826;-96
2022/09/08 14:54:14;;;;;;;;;1.00;0.00;;;;;;;;6402772;22;28566;-96
2022/09/08 14:57:03;;;;;;;;;0.00;0.00;;;;;;;;6403674;22;28398;-96
2022/09/08 14:59:29;;;;;;;;;0.00;0.00;;;;;;;;6370789;22;27808;-96
2022/09/08 15:02:19;;;;;;;;;1.33;0.00;;;;;;;;6365563;22;28369;-96
2022/09/08 15:04:46;;;;;;;;;0.00;0.00;;;;;;;;6364463;22;30064;-95
2022/09/08 15:07:25;;;;;;;;;1.00;1.00;;;;;;;;6362252;22;28812;-96
2022/09/08 15:10:11;;;;;;;;;0.67;0.00;;;;;;;;6362322;22;28381;-96
2022/09/08 15:12:37;;;;;;;;;2.00;0.00;;;;;;;;6361797;22;28292;-96
2022/09/08 15:15:21;;;;;;;;;0.00;0.00;;;;;;;;6360679;22;30474;-96
2022/09/08 15:17:53;;;;;;;;;0.00;0.00;;;;;;;;6361229;22;28783;-94
2022/09/08 15:20:37;;;;;;;;;1.00;0.00;;;;;;;;6377644;22;27753;-96
2022/09/08 15:30:54;;;;;;;;;1.00;0.67;;;;;;;;6440956;22;27932;-96
2022/09/08 15:33:19;;;;;;;;;0.00;0.00;;;;;;;;6393535;22;28299;-96
2022/09/08 15:35:45;;;;;;;;;0.00;0.00;;;;;;;;6390925;22;29716;-96
2022/09/08 15:38:13;;;;;;;;;0.00;0.00;;;;;;;;6393230;22;28777;-96
2022/09/08 15:40:39;;;;;;;;;0.00;0.00;;;;;;;;6392375;22;28715;-96
2022/09/08 15:43:14;;;;;;;;;0.00;0.00;;;;;;;;6392084;22;28395;-95
2022/09/08 15:45:58;;;;;;;;;1.00;0.00;;;;;;;;6390389;22;29945;-94
2022/09/08 15:48:39;;;;;;;;;0.00;0.00;;;;;;;;6419169;22;28634;-94
2022/09/08 15:51:10;;;;;;;;;0.00;0.00;;;;;;;;6391556;22;28283;-95
2022/09/08 15:53:45;;;;;;;;;1.00;0.00;;;;;;;;6392212;22;28315;-93
2022/09/08 15:56:10;;;;;;;;;0.00;0.00;;;;;;;;6392385;22;30209;-94
2022/09/08 15:58:40;;;;;;;;;0.00;0.00;;;;;;;;6391298;22;28678;-96
2022/09/08 16:01:34;;;;;;;;;0.00;0.00;;;;;;;;6398407;22;28461;-95
2022/09/08 16:04:11;;;;;;;;;0.00;0.00;;;;;;;;6405282;22;27837;-96
2022/09/08 16:06:37;;;;;;;;;0.00;0.00;;;;;;;;6401193;22;29960;-95
2022/09/08 16:09:10;;;;;;;;;1.00;1.00;;;;;;;;6398655;22;28753;-93
2022/09/08 16:11:58;;;;;;;;;1.00;0.00;;;;;;;;6392494;22;28453;-95
2022/09/08 16:14:33;;;;;;;;;1.00;0.00;;;;;;;;6393727;22;28432;-88
2022/09/08 16:17:11;;;;;;;;;0.00;0.00;;;;;;;;6417675;22;29498;-91
2022/09/08 16:19:37;;;;;;;;;0.00;0.00;;;;;;;;6422333;22;28369;-90
2022/09/08 16:22:13;;;;;;;;;0.00;0.00;;;;;;;;6425223;22;28350;-88
2022/09/08 16:24:53;;;;;;;;;0.00;0.00;;;;;;;;6426230;22;28402;-88
2022/09/08 16:27:18;;;;;;;;;1.00;0.00;;;;;;;;6395464;22;29550;-88
2022/09/08 16:30:09;;;;;;;;;0.00;0.00;;;;;;;;6425088;22;28418;-88
2022/09/08 16:32:43;;;;;;;;;0.00;0.00;;;;;;;;6396859;22;27788;-89
2022/09/08 16:35:09;;;;;;;;;2.33;1.00;;;;;;;;6398388;22;28438;-88
2022/09/08 16:37:45;;;;;;;;;2.67;0.33;;;;;;;;6397891;22;28517;-90
2022/09/08 16:40:12;;;;;;;;;0.00;0.00;;;;;;;;6427826;22;28437;-88
2022/09/08 16:42:43;;;;;;;;;0.00;0.00;;;;;;;;6390226;22;27852;-88
2022/09/08 16:45:13;;;;;;;;;0.00;0.00;;;;;;;;6387835;22;28545;-89
2022/09/08 16:47:54;;;;;;;;;0.00;0.00;;;;;;;;6387984;22;28347;-90
2022/09/08 16:50:22;;;;;;;;;0.00;0.00;;;;;;;;6387556;22;28868;-89
2022/09/08 16:53:00;;;;;;;;;0.00;0.00;;;;;;;;6388366;22;28428;-89
2022/09/08 16:55:33;;;;;;;;;1.00;1.00;;;;;;;;6416259;22;28372;-90
2022/09/08 16:58:11;;;;;;;;;0.00;0.00;;;;;;;;6388704;22;30019;-88
2022/09/08 17:00:45;;;;;;;;;0.00;0.00;;;;;;;;6389064;22;28371;-89
2022/09/08 17:03:15;;;;;;;;;1.00;1.00;;;;;;;;6389271;22;28406;-90
2022/09/08 17:06:00;;;;;;;;;1.00;1.00;;;;;;;;6389469;22;28663;-89
2022/09/08 17:08:31;;;;;;;;;0.67;0.00;;;;;;;;6389489;22;29906;-89
2022/09/08 17:11:03;;;;;;;;;0.00;0.00;;;;;;;;6388889;22;28387;-90
2022/09/08 17:13:30;;;;;;;;;0.00;0.00;;;;;;;;6389465;22;27826;-89
2022/09/08 17:16:14;;;;;;;;;3.00;0.00;;;;;;;;6389943;22;28538;-90
2022/09/08 17:18:52;;;;;;;;;0.00;0.00;;;;;;;;6414406;22;28381;-89
2022/09/08 17:21:36;;;;;;;;;0.00;0.00;;;;;;;;6417168;22;28315;-89
2022/09/08 17:24:34;;;;;;;;;1.00;0.00;;;;;;;;6389663;22;28354;-88
2022/09/08 17:27:09;;;;;;;;;0.00;0.00;;;;;;;;6260499;22;28628;-88
2022/09/08 17:29:53;;;;;;;;;0.00;0.00;;;;;;;;6287448;22;28481;-89
2022/09/08 17:32:38;;;;;;;;;1.00;1.00;;;;;;;;6262056;22;28396;-89
2022/09/08 17:35:08;;;;;;;;;1.00;1.00;;;;;;;;6262414;22;27862;-90
2022/09/08 17:37:42;;;;;;;;;1.00;1.00;;;;;;;;6290421;22;28504;-92
2022/09/08 17:40:25;;;;;;;;;2.00;1.00;;;;;;;;6263090;22;30535;-89
2022/09/08 17:43:11;;;;;;;;;2.00;1.00;;;;;;;;6261019;22;28849;-89
2022/09/08 17:45:37;;;;;;;;;0.00;0.00;;;;;;;;6289321;22;28371;-85
2022/09/08 17:48:21;;;;;;;;;1.00;1.00;;;;;;;;6288306;22;28519;-88
2022/09/08 17:51:04;;;;;;;;;0.67;0.67;;;;;;;;6287933;22;28361;-89
2022/09/08 17:53:33;;;;;;;;;2.00;0.00;;;;;;;;6262246;22;28892;-88
2022/09/08 17:55:58;;;;;;;;;1.00;1.00;;;;;;;;6261233;22;28349;-88
2022/09/08 17:58:23;;;;;;;;;0.67;0.67;;;;;;;;6261347;22;28516;-87
2022/09/08 18:01:01;;;;;;;;;2.00;1.00;;;;;;;;6261683;22;30876;-87
2022/09/08 18:03:39;;;;;;;;;2.00;2.00;;;;;;;;6406260;22;28674;-91
2022/09/08 18:06:12;;;;;;;;;1.00;1.00;;;;;;;;6399642;22;28394;-91
2022/09/08 18:08:39;;;;;;;;;1.00;1.00;;;;;;;;6398613;22;28618;-90
2022/09/08 18:11:06;;;;;;;;;1.00;1.00;;;;;;;;6397860;22;30728;-90
2022/09/08 18:13:44;;;;;;;;;1.00;1.00;;;;;;;;6399022;22;27837;-90
2022/09/08 18:16:16;;;;;;;;;0.67;0.67;;;;;;;;6401590;22;29032;-93
2022/09/08 18:18:43;;;;;;;;;3.00;1.00;;;;;;;;6399823;22;28276;-95
2022/09/08 18:21:19;;;;;;;;;4.00;1.00;;;;;;;;6399449;22;30023;-93
2022/09/08 18:23:50;;;;;;;;;1.00;1.00;;;;;;;;6428595;22;28406;-93
2022/09/08 18:26:16;;;;;;;;;1.00;1.00;;;;;;;;6392054;22;28461;-92
2022/09/08 18:28:48;;;;;;;;;0.00;0.00;;;;;;;;6417843;22;28365;-94
2022/09/08 18:31:26;;;;;;;;;3.00;2.00;;;;;;;;6426085;22;28462;-92
2022/09/08 18:34:18;;;;;;;;;1.00;0.00;;;;;;;;6390041;22;28763;-92
2022/09/08 18:36:55;;;;;;;;;2.00;0.67;;;;;;;;6389439;22;28374;-94
2022/09/08 18:39:39;;;;;;;;;1.00;0.00;;;;;;;;6390724;22;28311;-94
2022/09/08 18:42:05;;;;;;;;;3.33;2.00;;;;;;;;6389588;22;30347;-91
2022/09/08 18:44:34;;;;;;;;;2.00;2.00;;;;;;;;6390671;22;28404;-91
2022/09/08 18:47:18;;;;;;;;;1.00;1.00;;;;;;;;6388658;22;28491;-91
2022/09/08 18:50:01;;;;;;;;;1.00;1.00;;;;;;;;6422505;22;28323;-94
2022/09/08 18:52:44;;;;;;;;;1.67;0.00;;;;;;;;6389881;22;29819;-91
2022/09/08 18:55:12;;;;;;;;;4.00;2.00;;;;;;;;6390957;22;28373;-90
2022/09/08 18:57:39;;;;;;;;;1.00;1.00;;;;;;;;6389293;22;28409;-90
2022/09/08 19:00:19;;;;;;;;;2.67;1.00;;;;;;;;6419763;22;28716;-93
2022/09/08 19:02:45;;;;;;;;;0.00;0.00;;;;;;;;6390675;22;29605;-93
2022/09/08 19:05:13;;;;;;;;;1.00;1.00;;;;;;;;6421282;22;28694;-93
2022/09/08 19:07:45;;;;;;;;;1.00;1.00;;;;;;;;6389722;22;28528;-90
2022/09/08 19:10:24;;;;;;;;;3.00;2.00;;;;;;;;6389911;22;28556;-94
2022/09/08 19:12:55;;;;;;;;;1.67;1.00;;;;;;;;6387648;22;29904;-93
2022/09/08 19:15:35;;;;;;;;;1.33;1.33;;;;;;;;6389598;22;28326;-94
2022/09/08 19:18:09;;;;;;;;;1.00;1.00;;;;;;;;6392178;22;28354;-93
2022/09/08 19:20:36;;;;;;;;;1.00;1.00;;;;;;;;6390885;22;28382;-91
2022/09/08 19:23:25;;;;;;;;;2.00;0.67;;;;;;;;6389919;22;28361;-93
2022/09/08 19:26:01;;;;;;;;;3.00;1.67;;;;;;;;6373353;22;28651;-94
2022/09/08 19:28:27;;;;;;;;;3.00;1.00;;;;;;;;6418439;22;28341;-94
2022/09/08 19:30:53;;;;;;;;;2.00;1.00;;;;;;;;6388812;22;28375;-94
2022/09/08 19:33:25;;;;;;;;;1.00;1.00;;;;;;;;6390066;22;28466;-94
2022/09/08 19:36:06;;;;;;;;;0.67;0.33;;;;;;;;6390320;22;28419;-94
2022/09/08 19:38:37;;;;;;;;;2.33;2.00;;;;;;;;6390447;22;28496;-94
2022/09/08 19:41:17;;;;;;;;;1.33;1.00;;;;;;;;6389135;22;28346;-92
2022/09/08 19:43:46;;;;;;;;;1.00;1.00;;;;;;;;6389130;22;30816;-92
2022/09/08 19:46:17;;;;;;;;;4.33;2.00;;;;;;;;6393585;22;28726;-93
2022/09/08 19:48:52;;;;;;;;;1.00;0.33;;;;;;;;6398791;22;28326;-91
2022/09/08 19:51:17;;;;;;;;;1.33;1.33;;;;;;;;6397298;22;28539;-92
2022/09/08 19:53:47;;;;;;;;;1.67;0.33;;;;;;;;6427166;22;28343;-92
2022/09/08 19:56:19;;;;;;;;;1.67;1.67;;;;;;;;6397445;22;28803;-92
2022/09/08 19:58:57;;;;;;;;;2.33;2.00;;;;;;;;6398984;22;28313;-92
2022/09/08 20:01:41;;;;;;;;;1.33;1.33;;;;;;;;6400085;22;28553;-92
2022/09/08 20:04:14;;;;;;;;;1.00;1.00;;;;;;;;6400339;22;29937;-92
2022/09/08 20:06:54;;;;;;;;;2.00;2.00;;;;;;;;6400113;22;28994;-92
2022/09/08 20:09:50;;;;;;;;;9.67;4.00;;;;;;;;6422700;22;28120;-94
2022/09/08 20:12:28;;;;;;;;;6.00;1.33;;;;;;;;6317359;22;35599;-95
2022/09/08 20:14:59;;;;;;;;;0.00;0.00;;;;;;;;6292561;22;37170;-95
2022/09/08 20:17:39;;;;;;;;;0.00;0.00;;;;;;;;6292050;22;40168;-95
2022/09/08 20:21:17;;;;;;;;;1.33;1.00;;;;;;;;6313658;22;43708;-95
2022/09/08 20:24:21;;;;;;;;;2.50;0.75;;;;;;;;6184739;23;42388;-94
2022/09/08 20:52:59;;;;;;;;;;;;;;;;;;;;;
2022/09/08 20:55:33;;;;;;;;;1.00;1.00;;;;;;;;6413687;22;56214;-94
2022/09/08 20:58:06;;;;;;;;;0.50;0.50;;;;;;;;6388116;22;9428;-96
2022/09/08 21:00:33;;;;;;;;;1.00;1.00;;;;;;;;6388512;22;8776;-96
2022/09/08 21:03:00;;;;;;;;;1.25;0.75;;;;;;;;6388092;22;8741;-95
2022/09/08 21:05:31;;;;;;;;;0.75;0.75;;;;;;;;6387951;22;8861;-96
2022/09/08 21:08:06;;;;;;;;;0.25;0.25;;;;;;;;6387719;22;8742;-96
2022/09/08 21:10:36;;;;;;;;;0.00;0.00;;;;;;;;6386467;22;8761;-94
2022/09/08 21:13:08;;;;;;;;;0.25;0.25;;;;;;;;6386709;22;8768;-94
2022/09/08 21:15:42;;;;;;;;;1.00;1.00;;;;;;;;6387914;22;8752;-94
2022/09/08 21:18:26;;;;;;;;;0.75;0.75;;;;;;;;6388254;22;8714;-95
2022/09/08 21:20:59;;;;;;;;;0.00;0.00;;;;;;;;6390081;22;8734;-94
2022/09/08 21:23:28;;;;;;;;;2.50;1.25;;;;;;;;6389037;22;8734;-94
2022/09/08 21:25:59;;;;;;;;;1.00;1.00;;;;;;;;6388044;22;8726;-95
2022/09/08 21:28:38;;;;;;;;;1.25;1.00;;;;;;;;6390737;22;8770;-93
2022/09/08 21:31:26;;;;;;;;;1.00;1.00;;;;;;;;6398023;22;8708;-94
2022/09/08 21:34:05;;;;;;;;;2.00;2.00;;;;;;;;6397090;22;8741;-94
2022/09/08 21:36:50;;;;;;;;;2.00;2.00;;;;;;;;6364526;22;8801;-95
2022/09/08 21:39:19;;;;;;;;;3.00;2.00;;;;;;;;6347515;22;8740;-94
2022/09/08 21:41:48;;;;;;;;;1.75;1.75;;;;;;;;6363132;22;8842;-94
2022/09/08 21:44:43;;;;;;;;;1.00;1.00;;;;;;;;6363074;22;8809;-95
2022/09/08 21:47:21;;;;;;;;;1.25;1.25;;;;;;;;6262633;22;8749;-94
2022/09/08 21:49:53;;;;;;;;;2.00;1.50;;;;;;;;6238022;22;8776;-95
2022/09/08 21:52:20;;;;;;;;;1.50;1.25;;;;;;;;6232481;22;8772;-95
2022/09/08 21:54:48;;;;;;;;;2.00;0.00;;;;;;;;6227926;22;8835;-95
2022/09/08 21:57:32;;;;;;;;;1.00;1.00;;;;;;;;6226386;22;8756;-96
2022/09/08 22:00:08;;;;;;;;;2.00;1.00;;;;;;;;6228442;22;8883;-95
2022/09/08 22:02:38;;;;;;;;;1.00;1.00;;;;;;;;6223072;23;9662;-94
2022/09/08 22:05:12;;;;;;;;;0.75;0.75;;;;;;;;6226322;22;8760;-95
2022/09/08 22:07:41;;;;;;;;;1.00;1.00;;;;;;;;6228252;22;8736;-94
2022/09/08 22:10:20;;;;;;;;;1.00;1.00;;;;;;;;6227484;22;8770;-94
2022/09/08 22:12:51;;;;;;;;;1.00;0.25;;;;;;;;6227156;22;8767;-94
2022/09/08 22:15:22;;;;;;;;;2.00;1.00;;;;;;;;6227890;22;8782;-94
2022/09/08 22:17:58;;;;;;;;;1.25;1.00;;;;;;;;6227872;22;8783;-95
2022/09/08 22:20:35;;;;;;;;;1.00;1.00;;;;;;;;6227983;22;8740;-95
2022/09/08 22:23:16;;;;;;;;;2.00;2.00;;;;;;;;6244735;22;8756;-94
2022/09/08 22:26:03;;;;;;;;;1.75;1.00;;;;;;;;6351689;22;8825;-94
2022/09/08 22:28:43;;;;;;;;;1.00;1.00;;;;;;;;6353113;22;8740;-95
2022/09/08 22:31:09;;;;;;;;;1.00;1.00;;;;;;;;6353144;22;8736;-94
2022/09/08 22:33:35;;;;;;;;;1.00;1.00;;;;;;;;6353647;22;8758;-94
2022/09/08 22:36:09;;;;;;;;;0.75;0.25;;;;;;;;6377902;22;8766;-94
2022/09/08 22:38:53;;;;;;;;;1.00;1.00;;;;;;;;6384576;22;8999;-95
2022/09/08 22:41:27;;;;;;;;;1.00;1.00;;;;;;;;6384383;22;8737;-94
2022/09/08 22:44:13;;;;;;;;;0.00;0.00;;;;;;;;6384904;22;8765;-95
2022/09/08 22:46:42;;;;;;;;;3.25;1.50;;;;;;;;6385071;22;8742;-94
2022/09/08 22:49:17;;;;;;;;;3.00;0.75;;;;;;;;6385265;22;8750;-95
2022/09/08 22:51:47;;;;;;;;;1.00;1.00;;;;;;;;6384989;22;8726;-95
2022/09/08 22:54:21;;;;;;;;;1.00;1.00;;;;;;;;6385761;22;8773;-94